Time;durP1;ratioP1;P1;durP2;ratioP2;P2;SDS_P1;SDS_P2;PMS_P1;PMS_P2;Temp;Humidity;BMP_temperature;BMP_pressure;BME280_temperature;BME280_humidity;BME280_pressure;Samples;Min_cycle;Max_cycle;Signal;HPM_P1;HPM_P2
2023/05/18 00:07:05;;;;;;;23.00;7.40;;;;;;;8.42;87.02;99225.23;436422;1252;107199;-41
2023/05/18 00:17:09;;;;;;;23.60;7.40;;;;;;;8.29;86.81;99228.14;436268;1254;99182;-41
2023/05/18 00:27:38;;;;;;;18.20;5.20;;;;;;;8.21;86.66;99233.74;436440;1247;107368;-42
2023/05/18 00:37:45;;;;;;;18.30;5.80;;;;;;;8.19;86.43;99236.30;436388;1254;98817;-41
2023/05/18 00:47:50;;;;;;;11.10;5.10;;;;;;;8.19;86.37;99233.73;436248;1254;110886;-41
2023/05/18 00:57:56;;;;;;;13.30;4.40;;;;;;;8.18;86.26;99238.69;436292;1248;108009;-43
2023/05/18 01:08:01;;;;;;;10.40;4.90;;;;;;;8.11;86.43;99254.72;436605;1248;98015;-42
2023/05/18 01:18:08;;;;;;;11.30;4.80;;;;;;;7.96;86.16;99258.72;436656;1253;110345;-42
2023/05/18 01:28:19;;;;;;;18.60;5.60;;;;;;;7.93;86.05;99268.92;438004;1244;99228;-41
2023/05/18 01:38:25;;;;;;;12.10;3.70;;;;;;;7.95;85.89;99277.42;437231;1261;112823;-41
2023/05/18 01:48:32;;;;;;;12.00;3.30;;;;;;;7.93;85.85;99287.35;437006;1246;107766;-41
2023/05/18 01:58:36;;;;;;;15.90;4.60;;;;;;;7.88;85.73;99295.39;437231;1250;99364;-41
2023/05/18 02:08:40;;;;;;;12.10;3.60;;;;;;;7.73;85.53;99303.50;437222;1247;108166;-42
2023/05/18 02:18:44;;;;;;;11.10;3.00;;;;;;;7.65;85.35;99312.45;437020;1247;99266;-42
2023/05/18 02:28:48;;;;;;;10.00;2.60;;;;;;;7.59;85.26;99318.46;437263;1251;111799;-40
2023/05/18 02:38:52;;;;;;;9.70;2.90;;;;;;;7.59;85.24;99323.40;437321;1251;107607;-40
2023/05/18 02:48:56;;;;;;;8.50;3.40;;;;;;;7.56;85.21;99324.98;437275;1248;99228;-41
2023/05/18 02:59:01;;;;;;;14.00;3.70;;;;;;;7.47;85.19;99326.49;437147;1251;107611;-41
2023/05/18 03:09:05;;;;;;;15.40;3.60;;;;;;;7.43;85.09;99330.41;437018;1251;97980;-43
2023/05/18 03:19:08;;;;;;;8.70;2.50;;;;;;;7.46;84.89;99342.89;437177;1251;111716;-41
2023/05/18 03:29:15;;;;;;;12.80;2.80;;;;;;;7.50;84.92;99340.33;437383;1251;107345;-40
2023/05/18 03:39:22;;;;;;;16.20;6.20;;;;;;;7.53;85.09;99344.67;437183;1247;98581;-41
2023/05/18 03:49:28;;;;;;;16.40;6.50;;;;;;;7.52;84.96;99356.65;436977;1250;280983;-42
2023/05/18 03:59:32;;;;;;;9.70;3.50;;;;;;;7.52;84.86;99365.67;437096;1247;99221;-40
2023/05/18 04:09:36;;;;;;;15.10;6.00;;;;;;;7.57;84.80;99374.14;437138;1246;110744;-40
2023/05/18 04:19:39;;;;;;;21.20;4.30;;;;;;;7.63;84.84;99381.44;437225;1251;110782;-41
2023/05/18 04:29:43;;;;;;;8.40;3.40;;;;;;;7.64;84.72;99386.83;437138;1247;98009;-40
2023/05/18 04:39:47;;;;;;;15.70;3.90;;;;;;;7.60;84.75;99398.17;437129;1251;108409;-40
2023/05/18 04:59:57;;;;;;;10.60;3.10;;;;;;;7.88;84.48;99400.64;437245;1247;110982;-43
2023/05/18 05:10:00;;;;;;;17.70;4.20;;;;;;;8.03;84.56;99408.83;437027;1253;107624;-40
2023/05/18 05:20:06;;;;;;;17.00;3.70;;;;;;;8.20;84.36;99420.78;436959;1251;99325;-42
2023/05/18 05:30:11;;;;;;;7.20;2.80;;;;;;;8.40;83.98;99415.55;437128;1246;106755;-41
2023/05/18 05:40:15;;;;;;;14.80;3.60;;;;;;;8.70;83.50;99415.88;437169;1251;99718;-40
2023/05/18 05:50:19;;;;;;;15.20;3.80;;;;;;;8.95;83.29;99412.83;437044;1251;112042;-42
2023/05/18 06:10:27;;;;;;;6.60;1.70;;;;;;;9.37;81.68;99429.86;437067;1251;98852;-41
2023/05/18 06:20:31;;;;;;;19.80;3.80;;;;;;;9.38;80.60;99435.70;436989;1251;108889;-39
2023/05/18 06:30:37;;;;;;;14.00;3.70;;;;;;;9.57;80.07;99443.47;437110;1251;98781;-41
2023/05/18 06:40:42;;;;;;;8.20;2.80;;;;;;;9.63;78.84;99450.94;437086;1251;112483;-41
2023/05/18 06:50:45;;;;;;;10.20;2.30;;;;;;;9.65;78.15;99462.39;437202;1246;106650;-41
2023/05/18 07:00:49;;;;;;;10.80;3.20;;;;;;;9.75;77.21;99467.69;437118;1251;98269;-41
2023/05/18 07:20:59;;;;;;;9.10;2.90;;;;;;;10.13;75.89;99469.95;437159;1247;99521;-41
2023/05/18 07:31:03;;;;;;;16.60;3.50;;;;;;;10.52;75.48;99476.31;437222;1251;111919;-41
2023/05/18 07:41:07;;;;;;;9.60;3.20;;;;;;;10.74;74.24;99478.98;437021;1251;107440;-41
2023/05/18 08:11:19;;;;;;;12.60;2.60;;;;;;;11.12;72.40;99489.58;437240;1253;99190;-41
2023/05/18 08:21:22;;;;;;;11.30;3.40;;;;;;;11.21;72.24;99496.54;437277;1251;111633;-40
2023/05/18 08:31:30;;;;;;;14.40;2.90;;;;;;;11.14;70.94;99499.48;437165;1247;108562;-41
2023/05/18 08:41:40;;;;;;;9.30;2.90;;;;;;;11.26;71.24;99497.84;437322;1247;99212;-41
2023/05/18 09:01:51;;;;;;;9.60;2.40;;;;;;;11.72;70.36;99503.16;437142;1253;99348;-40
2023/05/18 09:11:55;;;;;;;5.70;2.10;;;;;;;11.59;69.34;99503.02;437167;1253;111540;-40
2023/05/18 09:21:58;;;;;;;6.90;1.90;;;;;;;11.63;68.91;99499.05;437313;1253;108226;-42
2023/05/18 09:32:03;;;;;;;11.00;2.40;;;;;;;11.65;68.52;99492.30;437220;1250;99201;-42
2023/05/18 09:42:07;;;;;;;8.30;2.00;;;;;;;11.64;67.99;99496.98;437230;1253;108770;-43
2023/05/18 09:52:15;;;;;;;10.30;1.90;;;;;;;11.64;67.27;99500.28;437168;1251;99218;-42
2023/05/18 10:02:19;;;;;;;3.90;1.90;;;;;;;11.75;67.49;99502.06;437277;1261;112545;-42
2023/05/18 10:12:23;;;;;;;4.90;2.10;;;;;;;11.84;66.81;99510.55;437236;1261;108337;-42
2023/05/18 10:22:28;;;;;;;5.90;2.10;;;;;;;11.94;66.70;99506.57;437125;1247;99234;-42
2023/05/18 10:32:34;;;;;;;6.60;2.10;;;;;;;12.18;66.20;99503.83;437155;1253;107229;-42
2023/05/18 10:42:42;;;;;;;8.80;1.50;;;;;;;12.42;66.48;99505.05;437502;1247;98777;-41
2023/05/18 10:52:47;;;;;;;6.60;2.00;;;;;;;12.48;65.56;99511.45;437585;1247;111568;-41
2023/05/18 11:02:53;;;;;;;5.60;1.60;;;;;;;12.51;64.62;99504.88;437318;1251;107912;-41
2023/05/18 11:13:00;;;;;;;4.20;1.90;;;;;;;12.46;63.70;99502.07;437325;1252;99200;-41
2023/05/18 11:23:03;;;;;;;5.80;1.90;;;;;;;12.49;63.80;99500.78;437308;1252;107558;-42
2023/05/18 11:33:11;;;;;;;4.90;1.80;;;;;;;12.59;63.16;99499.00;437276;1247;99341;-43
2023/05/18 11:43:20;;;;;;;7.30;1.70;;;;;;;12.75;63.03;99509.48;437283;1250;112941;-44
2023/05/18 11:53:26;;;;;;;5.70;1.70;;;;;;;12.57;62.28;99514.43;437286;1253;107635;-41
2023/05/18 12:03:32;;;;;;;2.80;1.70;;;;;;;12.52;62.43;99517.16;437365;1250;99247;-40
2023/05/18 12:13:41;;;;;;;8.10;1.90;;;;;;;12.62;62.48;99515.65;437385;1250;108230;-42
2023/05/18 12:23:45;;;;;;;3.00;1.30;;;;;;;12.76;61.89;99514.08;437491;1247;99221;-41
2023/05/18 12:43:54;;;;;;;6.00;1.90;;;;;;;12.89;61.98;99512.85;437236;1251;107283;-42
2023/05/18 12:53:58;;;;;;;6.70;1.30;;;;;;;12.76;62.09;99506.48;437354;1247;98009;-41
2023/05/18 13:04:11;;;;;;;5.50;1.40;;;;;;;12.73;62.37;99505.45;437377;1252;108641;-40
2023/05/18 13:14:19;;;;;;;10.30;2.40;;;;;;;12.49;62.06;99507.67;437304;1254;99191;-42
2023/05/18 13:24:23;;;;;;;7.00;2.00;;;;;;;12.42;62.67;99510.12;437443;1246;110865;-42
2023/05/18 13:34:30;;;;;;;5.00;2.00;;;;;;;12.39;62.86;99508.77;437410;1261;111559;-41
2023/05/18 13:44:38;;;;;;;7.80;2.30;;;;;;;12.22;63.23;99506.77;437290;1248;98851;-42
2023/05/18 13:54:42;;;;;;;7.30;2.00;;;;;;;12.18;63.87;99506.43;437296;1250;108889;-42
2023/05/18 14:04:45;;;;;;;2.30;1.50;;;;;;;12.18;64.20;99502.48;437423;1248;97983;-42
2023/05/18 14:14:49;;;;;;;4.30;2.00;;;;;;;12.16;64.78;99500.38;437304;1251;111032;-42
2023/05/18 14:24:53;;;;;;;3.30;1.40;;;;;;;12.17;65.11;99505.55;437173;1251;107275;-42
2023/05/18 14:34:57;;;;;;;5.20;2.50;;;;;;;11.96;65.28;99507.58;437462;1248;98127;-41
2023/05/18 14:45:01;;;;;;;4.30;1.90;;;;;;;11.87;65.79;99509.58;437366;1253;108673;-42
2023/05/18 14:55:06;;;;;;;6.30;2.40;;;;;;;11.76;66.01;99509.59;437358;1252;99221;-40
2023/05/18 15:05:10;;;;;;;6.10;2.00;;;;;;;11.59;66.41;99509.73;437500;1261;113516;-41
2023/05/18 15:15:13;;;;;;;3.70;2.70;;;;;;;11.49;67.13;99519.54;437356;1254;108539;-42
2023/05/18 15:25:16;;;;;;;5.40;2.80;;;;;;;11.39;67.70;99514.64;437347;1248;98038;-43
2023/05/18 15:35:20;;;;;;;4.70;2.50;;;;;;;11.21;68.27;99519.76;437296;1261;108289;-42
2023/05/18 15:45:25;;;;;;;4.10;2.40;;;;;;;11.13;68.72;99515.72;436830;1260;698930;-42
2023/05/18 15:55:33;;;;;;;6.90;3.10;;;;;;;10.93;69.19;99519.02;437465;1260;112910;-42
2023/05/18 16:05:36;;;;;;;8.00;2.70;;;;;;;10.77;69.65;99520.02;437366;1253;107617;-42
2023/05/18 16:15:41;;;;;;;5.70;3.20;;;;;;;10.64;70.73;99523.72;437393;1248;99230;-43
2023/05/18 16:25:46;;;;;;;7.00;4.10;;;;;;;10.51;70.91;99532.02;437426;1248;108173;-42
2023/05/18 16:35:52;;;;;;;3.50;2.60;;;;;;;10.44;71.47;99531.80;437402;1260;97937;-42
2023/05/18 16:45:57;;;;;;;7.20;3.60;;;;;;;10.51;72.22;99531.16;437551;1251;111822;-42
2023/05/18 16:56:01;;;;;;;6.80;2.60;;;;;;;10.45;72.70;99533.59;437395;1247;107381;-41
2023/05/18 17:06:09;;;;;;;10.60;4.80;;;;;;;10.41;73.13;99540.14;437332;1251;98697;-43
2023/05/18 17:16:14;;;;;;;8.90;3.90;;;;;;;10.12;73.59;99542.70;437405;1254;107822;-43
2023/05/18 17:26:18;;;;;;;10.30;4.60;;;;;;;9.99;73.91;99554.16;437237;1251;99375;-43
2023/05/18 17:36:22;;;;;;;11.50;5.20;;;;;;;9.89;74.49;99556.06;437282;1254;111775;-42
2023/05/18 17:46:26;;;;;;;11.30;5.80;;;;;;;9.82;74.79;99556.67;437200;1248;106720;-42
2023/05/18 17:56:34;;;;;;;10.80;6.30;;;;;;;9.71;75.14;99556.25;437264;1260;99209;-43
2023/05/18 18:06:37;;;;;;;24.90;4.50;;;;;;;9.58;75.46;99557.82;437201;1251;107732;-42
2023/05/18 18:16:41;;;;;;;9.50;6.30;;;;;;;9.39;75.62;99556.75;437381;1251;98015;-42
2023/05/18 18:26:45;;;;;;;11.80;10.50;;;;;;;9.34;75.89;99553.54;437317;1248;112176;-42
2023/05/18 18:36:49;;;;;;;9.10;6.50;;;;;;;9.32;75.85;99556.34;437368;1248;108723;-41
2023/05/18 18:46:56;;;;;;;9.90;5.30;;;;;;;9.29;76.11;99563.71;437404;1251;99218;-42
2023/05/18 19:07:04;;;;;;;11.10;5.90;;;;;;;9.39;76.63;99585.14;437483;1248;98081;-42
2023/05/18 19:17:08;;;;;;;11.80;6.10;;;;;;;9.17;76.94;99585.48;437436;1251;110785;-41
2023/05/18 19:27:12;;;;;;;14.70;6.60;;;;;;;9.01;77.14;99584.11;437503;1247;106497;-42
2023/05/18 19:37:16;;;;;;;6.00;4.10;;;;;;;8.98;77.45;99590.98;437456;1250;98834;-41
2023/05/18 19:47:20;;;;;;;3.90;2.90;;;;;;;8.80;77.62;99596.38;437371;1247;108127;-42
2023/05/18 19:57:26;;;;;;;4.30;3.10;;;;;;;8.69;77.87;99595.93;437301;1251;99306;-41
2023/05/18 20:07:30;;;;;;;4.80;2.60;;;;;;;8.59;78.18;99601.81;437249;1250;111832;-42
2023/05/18 20:17:33;;;;;;;8.60;3.60;;;;;;;8.47;78.26;99614.48;437389;1250;107730;-42
2023/05/18 20:27:37;;;;;;;4.40;2.50;;;;;;;8.33;78.55;99612.90;437386;1251;99218;-42
2023/05/18 20:37:45;;;;;;;6.70;2.50;;;;;;;8.25;78.73;99610.34;437325;1248;108464;-40
2023/05/18 20:48:23;;;;;;;7.50;3.10;;;;;;;8.19;78.70;99613.15;437288;1248;99202;-42
2023/05/18 20:58:27;;;;;;;4.60;2.60;;;;;;;8.21;78.94;99619.11;437309;1251;111974;-41
2023/05/18 21:08:31;;;;;;;5.10;3.00;;;;;;;8.10;78.75;99626.41;437267;1253;107445;-42
2023/05/18 21:18:36;;;;;;;6.80;2.60;;;;;;;8.09;78.70;99622.88;437153;1251;99246;-41
2023/05/18 21:28:39;;;;;;;6.30;3.60;;;;;;;8.26;78.62;99617.34;437225;1251;108471;-41
2023/05/18 21:38:43;;;;;;;4.50;2.20;;;;;;;8.36;78.58;99607.93;437192;1251;99318;-43
2023/05/18 21:48:51;;;;;;;4.90;3.10;;;;;;;8.36;78.72;99614.09;437317;1261;113547;-42
2023/05/18 21:58:55;;;;;;;6.40;3.10;;;;;;;8.33;78.63;99621.27;437276;1248;109269;-42
2023/05/18 22:08:59;;;;;;;5.30;2.90;;;;;;;8.29;78.84;99627.38;437299;1251;99211;-40
2023/05/18 22:19:03;;;;;;;5.10;3.00;;;;;;;8.22;79.09;99624.55;437151;1251;108560;-42
2023/05/18 22:29:10;;;;;;;6.70;3.20;;;;;;;8.26;79.27;99625.98;437219;1251;99234;-42
2023/05/18 22:49:19;;;;;;;6.50;3.20;;;;;;;8.05;79.50;99626.08;436455;1248;108173;-42
2023/05/18 23:09:29;;;;;;;5.80;3.10;;;;;;;8.17;79.99;99618.19;436509;1247;107895;-42
2023/05/18 23:19:34;;;;;;;6.30;2.80;;;;;;;8.29;80.15;99609.71;436241;1248;98805;-42
2023/05/18 23:29:38;;;;;;;8.80;4.20;;;;;;;8.31;80.33;99601.46;436480;1253;111512;-41
2023/05/18 23:39:45;;;;;;;8.00;4.50;;;;;;;8.26;80.47;99597.10;437275;1251;108128;-42
2023/05/18 23:49:50;;;;;;;4.70;2.80;;;;;;;8.15;80.36;99591.76;437315;1247;99205;-42
2023/05/18 23:59:54;;;;;;;6.40;2.90;;;;;;;8.18;80.59;99596.60;437182;1251;107546;-42
